Time;durP1;ratioP1;P1;durP2;ratioP2;P2;SDS_P1;SDS_P2;PMS_P1;PMS_P2;Temp;Humidity;BMP_temperature;BMP_pressure;BME280_temperature;BME280_humidity;BME280_pressure;Samples;Min_cycle;Max_cycle;Signal;HPM_P1;HPM_P2
2021/03/30 00:00:07;;;;;;;3.42;1.00;;;;;;;;;;5131648;27;20068;-56
2021/03/30 00:02:32;;;;;;;3.13;0.98;;;;;;;;;;5122524;27;20015;-56
2021/03/30 00:04:57;;;;;;;3.60;0.63;;;;;;;;;;5134812;27;20419;-57
2021/03/30 00:07:22;;;;;;;3.55;0.85;;;;;;;;;;5124164;27;20015;-53
2021/03/30 00:09:48;;;;;;;3.53;1.05;;;;;;;;;;5127923;27;20030;-55
2021/03/30 00:12:14;;;;;;;4.28;0.60;;;;;;;;;;5133484;27;20603;-56
2021/03/30 00:14:39;;;;;;;3.75;0.82;;;;;;;;;;5134677;27;20097;-56
2021/03/30 00:17:04;;;;;;;4.20;0.77;;;;;;;;;;5132137;27;20019;-55
2021/03/30 00:19:29;;;;;;;2.70;0.68;;;;;;;;;;5123170;27;20020;-55
2021/03/30 00:21:55;;;;;;;2.63;0.85;;;;;;;;;;5118917;27;20101;-55
2021/03/30 00:24:20;;;;;;;3.83;0.75;;;;;;;;;;5133365;27;20043;-53
2021/03/30 00:26:45;;;;;;;4.63;0.90;;;;;;;;;;5121652;27;20475;-56
2021/03/30 00:29:10;;;;;;;3.30;0.75;;;;;;;;;;5120657;27;20042;-56
2021/03/30 00:31:35;;;;;;;2.13;0.70;;;;;;;;;;5132719;27;20466;-57
2021/03/30 00:34:01;;;;;;;3.45;0.70;;;;;;;;;;5133609;27;20048;-56
2021/03/30 00:36:26;;;;;;;3.67;0.90;;;;;;;;;;5133487;27;20381;-55
2021/03/30 00:38:51;;;;;;;5.68;0.93;;;;;;;;;;5131203;27;20046;-54
2021/03/30 00:41:16;;;;;;;4.50;1.35;;;;;;;;;;5132541;27;20529;-55
2021/03/30 00:43:41;;;;;;;4.32;1.05;;;;;;;;;;5128284;27;20015;-52
2021/03/30 00:46:13;;;;;;;3.45;1.05;;;;;;;;;;5126156;27;20078;-54
2021/03/30 00:48:38;;;;;;;4.45;1.25;;;;;;;;;;5130326;27;20068;-54
2021/03/30 00:51:04;;;;;;;5.18;1.30;;;;;;;;;;5133648;27;20440;-53
2021/03/30 00:53:29;;;;;;;3.63;0.90;;;;;;;;;;5132209;27;20529;-55
2021/03/30 00:55:54;;;;;;;3.00;1.00;;;;;;;;;;5125429;27;20016;-52
2021/03/30 00:58:20;;;;;;;3.40;0.70;;;;;;;;;;5126119;28;20117;-56
2021/03/30 01:00:45;;;;;;;3.50;0.80;;;;;;;;;;5132274;27;20130;-56
2021/03/30 01:03:10;;;;;;;4.25;1.08;;;;;;;;;;5130770;28;20026;-55
2021/03/30 01:05:35;;;;;;;2.78;0.93;;;;;;;;;;5133209;27;20055;-54
2021/03/30 01:08:16;;;;;;;3.67;0.68;;;;;;;;;;5125413;28;20027;-53
2021/03/30 01:11:00;;;;;;;3.88;0.77;;;;;;;;;;5126756;28;20063;-52
2021/03/30 01:13:48;;;;;;;3.53;0.80;;;;;;;;;;5125343;28;20071;-55
2021/03/30 01:16:16;;;;;;;4.15;1.00;;;;;;;;;;5132200;28;20034;-50
2021/03/30 01:18:46;;;;;;;6.68;1.60;;;;;;;;;;5131902;27;20031;-55
2021/03/30 01:21:32;;;;;;;9.73;3.67;;;;;;;;;;5121913;27;20035;-55
2021/03/30 01:23:57;;;;;;;;;;;;;;;;;;5109877;28;20521;-55
2021/03/30 01:26:29;;;;;;;10.35;4.10;;;;;;;;;;5110403;28;19908;-54
2021/03/30 01:28:57;;;;;;;8.07;2.97;;;;;;;;;;5101853;28;20547;-55
2021/03/30 01:31:23;;;;;;;6.82;1.58;;;;;;;;;;5099026;28;20057;-52
2021/03/30 01:33:50;;;;;;;3.30;0.95;;;;;;;;;;5099585;28;20036;-50
2021/03/30 01:39:18;;;;;;;6.07;1.17;;;;;;;;;;5108837;28;20026;-54
2021/03/30 01:41:46;;;;;;;4.32;0.73;;;;;;;;;;5105761;28;20020;-55
2021/03/30 01:44:12;;;;;;;4.05;1.05;;;;;;;;;;5110436;28;20035;-56
2021/03/30 01:46:38;;;;;;;3.33;0.80;;;;;;;;;;5107156;28;20016;-54
2021/03/30 01:49:05;;;;;;;4.18;0.80;;;;;;;;;;5102060;28;20031;-55
2021/03/30 01:51:31;;;;;;;6.25;1.58;;;;;;;;;;5096851;28;20048;-55
2021/03/30 01:53:58;;;;;;;3.67;0.85;;;;;;;;;;5096828;28;20131;-56
2021/03/30 01:56:23;;;;;;;4.13;0.77;;;;;;;;;;5131614;27;20023;-56
2021/03/30 01:58:50;;;;;;;3.78;0.73;;;;;;;;;;5137024;27;20470;-55
2021/03/30 02:01:16;;;;;;;2.80;0.60;;;;;;;;;;5126301;27;20050;-53
2021/03/30 02:03:42;;;;;;;4.35;1.23;;;;;;;;;;5116703;28;20043;-55
2021/03/30 02:06:08;;;;;;;4.07;0.85;;;;;;;;;;5128805;27;20466;-54
2021/03/30 02:08:34;;;;;;;1.40;0.50;;;;;;;;;;5136775;27;20019;-52
2021/03/30 02:10:59;;;;;;;3.88;1.20;;;;;;;;;;5135927;27;20023;-52
2021/03/30 02:16:07;;;;;;;3.60;1.20;;;;;;;;;;5121611;27;20094;-55
2021/03/30 02:18:37;;;;;;;6.50;1.90;;;;;;;;;;5136650;27;20019;-56
2021/03/30 02:21:04;;;;;;;4.63;2.30;;;;;;;;;;5128661;27;20111;-53
2021/03/30 02:23:33;;;;;;;5.15;1.85;;;;;;;;;;5119523;27;20489;-53
2021/03/30 02:25:59;;;;;;;5.68;1.98;;;;;;;;;;5136390;27;20443;-56
2021/03/30 02:28:28;;;;;;;4.78;1.88;;;;;;;;;;5136444;27;20030;-56
2021/03/30 02:30:53;;;;;;;4.88;1.65;;;;;;;;;;5135571;27;20477;-55
2021/03/30 02:33:21;;;;;;;4.82;1.52;;;;;;;;;;5136179;27;20038;-54
2021/03/30 02:35:47;;;;;;;3.35;1.48;;;;;;;;;;5136352;27;20030;-56
2021/03/30 02:38:12;;;;;;;5.18;1.67;;;;;;;;;;5136311;27;20393;-53
2021/03/30 02:40:38;;;;;;;3.70;1.67;;;;;;;;;;5126943;27;20406;-57
2021/03/30 02:43:03;;;;;;;3.90;1.80;;;;;;;;;;5136194;27;20053;-51
2021/03/30 02:45:30;;;;;;;7.53;1.80;;;;;;;;;;5135941;27;20030;-54
2021/03/30 02:47:57;;;;;;;4.60;1.88;;;;;;;;;;5136131;27;20027;-53
2021/03/30 02:50:23;;;;;;;6.07;1.98;;;;;;;;;;5125319;27;20414;-53
2021/03/30 02:52:48;;;;;;;4.32;1.55;;;;;;;;;;5124474;27;20158;-55
2021/03/30 02:55:14;;;;;;;4.28;2.17;;;;;;;;;;5131626;27;20035;-56
2021/03/30 02:57:40;;;;;;;5.72;2.22;;;;;;;;;;5114076;28;20107;-57
2021/03/30 03:00:07;;;;;;;6.45;1.88;;;;;;;;;;5124103;27;20050;-55
2021/03/30 03:02:33;;;;;;;6.68;2.13;;;;;;;;;;5135584;27;20097;-51
2021/03/30 03:04:58;;;;;;;5.47;2.05;;;;;;;;;;5118809;27;20484;-54
2021/03/30 03:07:23;;;;;;;4.50;1.95;;;;;;;;;;5123656;27;20431;-56
2021/03/30 03:09:50;;;;;;;5.65;2.30;;;;;;;;;;5134320;27;20023;-52
2021/03/30 03:12:16;;;;;;;4.60;1.90;;;;;;;;;;5135503;27;20029;-55
2021/03/30 03:14:42;;;;;;;8.10;2.38;;;;;;;;;;5131903;27;20098;-57
2021/03/30 03:17:08;;;;;;;4.47;1.80;;;;;;;;;;5114962;27;20402;-54
2021/03/30 03:19:35;;;;;;;7.93;2.40;;;;;;;;;;5123593;27;20023;-53
2021/03/30 03:22:01;;;;;;;5.43;2.67;;;;;;;;;;5114765;28;20066;-52
2021/03/30 03:24:26;;;;;;;8.30;2.80;;;;;;;;;;5125526;27;20488;-55
2021/03/30 03:26:51;;;;;;;4.72;2.80;;;;;;;;;;5126074;27;20493;-56
2021/03/30 03:29:18;;;;;;;9.23;2.83;;;;;;;;;;5114514;28;20019;-56
2021/03/30 03:31:43;;;;;;;6.43;2.75;;;;;;;;;;5114642;28;20084;-56
2021/03/30 03:34:09;;;;;;;6.45;2.65;;;;;;;;;;5125034;27;20458;-53
2021/03/30 03:36:45;;;;;;;6.68;2.53;;;;;;;;;;5134235;27;20051;-55
2021/03/30 03:39:11;;;;;;;6.07;2.50;;;;;;;;;;5134873;27;20031;-54
2021/03/30 03:41:37;;;;;;;7.05;2.78;;;;;;;;;;5134372;27;20034;-55
2021/03/30 03:44:03;;;;;;;5.38;2.45;;;;;;;;;;5134810;27;20015;-52
2021/03/30 03:46:28;;;;;;;8.32;2.70;;;;;;;;;;5118563;27;20027;-54
2021/03/30 03:48:53;;;;;;;6.65;2.50;;;;;;;;;;5125265;27;20019;-56
2021/03/30 03:51:19;;;;;;;6.05;2.55;;;;;;;;;;5134539;27;20171;-52
2021/03/30 03:53:46;;;;;;;8.77;2.53;;;;;;;;;;5132082;27;20019;-56
2021/03/30 03:56:13;;;;;;;5.32;2.80;;;;;;;;;;5134422;27;20047;-56
2021/03/30 03:58:42;;;;;;;5.30;2.75;;;;;;;;;;5134422;27;20557;-56
2021/03/30 04:01:09;;;;;;;5.03;2.63;;;;;;;;;;5123597;27;20024;-56
2021/03/30 04:03:43;;;;;;;6.57;2.78;;;;;;;;;;5121924;27;20022;-56
2021/03/30 04:06:13;;;;;;;7.13;2.30;;;;;;;;;;5134552;27;20030;-55
2021/03/30 04:08:46;;;;;;;4.82;1.88;;;;;;;;;;5134974;27;20427;-56
2021/03/30 04:11:12;;;;;;;6.78;2.20;;;;;;;;;;5133177;27;20051;-55
2021/03/30 04:13:38;;;;;;;9.88;2.25;;;;;;;;;;5134229;27;20069;-54
2021/03/30 04:16:05;;;;;;;5.93;1.95;;;;;;;;;;5134381;27;20015;-52
2021/03/30 04:18:31;;;;;;;5.85;2.13;;;;;;;;;;5132037;27;20039;-55
2021/03/30 04:20:56;;;;;;;4.57;1.65;;;;;;;;;;5123750;27;20069;-55
2021/03/30 04:23:25;;;;;;;6.57;2.00;;;;;;;;;;5124613;27;20020;-54
2021/03/30 04:25:50;;;;;;;5.68;1.70;;;;;;;;;;5121698;27;20015;-56
2021/03/30 04:28:16;;;;;;;7.85;2.15;;;;;;;;;;5134035;27;20525;-57
2021/03/30 04:30:41;;;;;;;6.97;2.25;;;;;;;;;;5129277;27;20016;-57
2021/03/30 04:33:06;;;;;;;6.55;2.00;;;;;;;;;;5123809;27;20015;-54
2021/03/30 04:35:32;;;;;;;3.75;2.20;;;;;;;;;;5133845;27;20450;-56
2021/03/30 04:37:57;;;;;;;3.83;2.17;;;;;;;;;;5133854;27;20015;-56
2021/03/30 04:40:23;;;;;;;7.15;2.67;;;;;;;;;;5133143;27;20020;-55
2021/03/30 04:42:48;;;;;;;4.72;1.90;;;;;;;;;;5132588;27;20064;-55
2021/03/30 04:45:14;;;;;;;6.43;2.38;;;;;;;;;;5133124;27;20007;-55
2021/03/30 04:47:39;;;;;;;5.50;2.22;;;;;;;;;;5133758;27;20109;-56
2021/03/30 04:50:06;;;;;;;6.55;2.47;;;;;;;;;;5133548;27;20122;-57
2021/03/30 04:52:31;;;;;;;6.30;2.45;;;;;;;;;;5131013;27;20034;-55
2021/03/30 04:54:57;;;;;;;6.43;2.55;;;;;;;;;;5133199;27;20110;-53
2021/03/30 04:57:22;;;;;;;7.88;2.78;;;;;;;;;;5131772;27;20075;-54
2021/03/30 04:59:47;;;;;;;4.78;2.15;;;;;;;;;;5133350;27;20023;-55
2021/03/30 05:02:12;;;;;;;6.95;2.67;;;;;;;;;;5133081;28;20114;-54
2021/03/30 05:04:38;;;;;;;6.90;2.80;;;;;;;;;;5133134;28;20019;-53
2021/03/30 05:07:03;;;;;;;10.32;2.80;;;;;;;;;;5133077;28;20370;-54
2021/03/30 05:09:28;;;;;;;7.20;2.70;;;;;;;;;;5133262;27;20026;-55
2021/03/30 05:11:54;;;;;;;7.03;2.63;;;;;;;;;;5133197;28;20027;-55
2021/03/30 05:14:19;;;;;;;7.85;2.83;;;;;;;;;;5132895;27;20393;-55
2021/03/30 05:16:44;;;;;;;6.85;2.70;;;;;;;;;;5132886;28;20442;-56
2021/03/30 05:19:09;;;;;;;6.22;2.70;;;;;;;;;;5133212;28;20076;-57
2021/03/30 05:21:35;;;;;;;9.23;3.22;;;;;;;;;;5124499;28;20024;-57
2021/03/30 05:24:00;;;;;;;7.75;2.75;;;;;;;;;;5129413;28;20482;-53
2021/03/30 05:26:25;;;;;;;5.28;2.63;;;;;;;;;;5132249;27;20030;-53
2021/03/30 05:28:51;;;;;;;6.45;2.42;;;;;;;;;;5133340;28;20015;-56
2021/03/30 05:31:16;;;;;;;6.18;2.80;;;;;;;;;;5135378;27;20024;-53
2021/03/30 05:33:41;;;;;;;7.68;2.47;;;;;;;;;;5122568;27;20022;-56
2021/03/30 05:36:06;;;;;;;6.25;2.95;;;;;;;;;;5121657;27;20454;-57
2021/03/30 05:38:32;;;;;;;5.25;2.95;;;;;;;;;;5127345;27;20023;-53
2021/03/30 05:40:57;;;;;;;9.02;2.70;;;;;;;;;;5115979;28;20427;-55
2021/03/30 05:43:22;;;;;;;7.53;3.17;;;;;;;;;;5120500;27;20076;-53
2021/03/30 05:45:48;;;;;;;7.15;3.38;;;;;;;;;;5123213;27;20382;-52
2021/03/30 05:48:15;;;;;;;7.85;3.67;;;;;;;;;;5118217;27;20032;-56
2021/03/30 05:50:41;;;;;;;9.38;2.70;;;;;;;;;;5131973;27;20126;-56
2021/03/30 05:53:07;;;;;;;4.97;2.90;;;;;;;;;;5129931;27;20492;-56
2021/03/30 05:55:34;;;;;;;6.85;3.15;;;;;;;;;;5134523;27;20381;-54
2021/03/30 05:58:00;;;;;;;9.27;3.13;;;;;;;;;;5118485;27;20686;-55
2021/03/30 06:00:26;;;;;;;7.40;3.08;;;;;;;;;;5131637;27;20046;-50
2021/03/30 06:02:53;;;;;;;9.75;3.20;;;;;;;;;;5132035;27;20030;-53
2021/03/30 06:05:19;;;;;;;10.18;3.47;;;;;;;;;;5124436;27;20466;-52
2021/03/30 06:07:44;;;;;;;8.82;3.25;;;;;;;;;;5124883;27;20030;-49
2021/03/30 06:10:13;;;;;;;11.02;3.45;;;;;;;;;;5125870;27;20016;-52
2021/03/30 06:12:39;;;;;;;6.72;2.85;;;;;;;;;;5132233;27;20023;-54
2021/03/30 06:15:05;;;;;;;7.22;3.35;;;;;;;;;;5129023;27;20534;-51
2021/03/30 06:17:50;;;;;;;10.90;3.45;;;;;;;;;;5125575;27;20509;-53
2021/03/30 06:20:34;;;;;;;6.33;2.90;;;;;;;;;;5129012;27;20493;-54
2021/03/30 06:23:03;;;;;;;11.40;3.67;;;;;;;;;;5131599;27;20031;-55
2021/03/30 06:25:42;;;;;;;5.40;2.50;;;;;;;;;;5128946;27;20041;-55
2021/03/30 06:28:13;;;;;;;8.05;2.60;;;;;;;;;;5132654;27;20124;-55
2021/03/30 06:30:41;;;;;;;7.80;3.00;;;;;;;;;;5124945;27;20401;-56
2021/03/30 06:33:07;;;;;;;7.18;3.10;;;;;;;;;;5133062;27;20089;-54
2021/03/30 06:35:32;;;;;;;11.52;3.30;;;;;;;;;;5128339;27;20385;-57
2021/03/30 06:37:58;;;;;;;6.40;2.83;;;;;;;;;;5120442;27;20031;-55
2021/03/30 06:40:27;;;;;;;6.75;3.72;;;;;;;;;;5122371;27;20023;-51
2021/03/30 06:44:24;;;;;;;6.70;3.38;;;;;;;;;;5120093;27;20039;-56
2021/03/30 06:45:44;;;;;;;10.65;4.45;;;;;;;;;;5121638;27;20360;-52
2021/03/30 06:48:09;;;;;;;7.88;3.33;;;;;;;;;;5125469;27;20159;-55
2021/03/30 06:50:36;;;;;;;6.15;3.22;;;;;;;;;;5124539;27;20074;-52
2021/03/30 06:53:12;;;;;;;14.20;3.92;;;;;;;;;;5125078;27;20031;-53
2021/03/30 06:55:45;;;;;;;13.70;3.75;;;;;;;;;;5125634;27;20035;-53
2021/03/30 06:58:10;;;;;;;6.40;3.58;;;;;;;;;;5124814;27;20033;-53
2021/03/30 07:00:37;;;;;;;10.40;4.20;;;;;;;;;;5124358;27;20035;-52
2021/03/30 07:03:05;;;;;;;8.95;3.55;;;;;;;;;;5123938;27;20109;-54
2021/03/30 07:05:31;;;;;;;10.60;4.55;;;;;;;;;;5126615;27;20023;-54
2021/03/30 07:07:57;;;;;;;11.13;3.70;;;;;;;;;;5126901;27;20126;-53
2021/03/30 07:10:23;;;;;;;14.25;4.70;;;;;;;;;;5125038;27;20045;-54
2021/03/30 07:12:50;;;;;;;11.18;3.65;;;;;;;;;;5126588;27;20022;-55
2021/03/30 07:15:16;;;;;;;12.60;4.07;;;;;;;;;;5124447;27;20087;-53
2021/03/30 07:17:42;;;;;;;15.52;4.10;;;;;;;;;;5130350;27;20035;-54
2021/03/30 07:20:09;;;;;;;9.93;4.45;;;;;;;;;;5135311;27;20076;-54
2021/03/30 07:22:36;;;;;;;11.65;3.97;;;;;;;;;;5124392;27;20028;-54
2021/03/30 07:25:05;;;;;;;13.00;4.10;;;;;;;;;;5118883;27;20131;-54
2021/03/30 07:27:35;;;;;;;13.10;4.18;;;;;;;;;;5123235;27;20035;-57
2021/03/30 07:30:01;;;;;;;12.00;4.40;;;;;;;;;;5130643;27;20076;-52
2021/03/30 07:32:45;;;;;;;14.10;4.75;;;;;;;;;;5124555;27;20024;-58
2021/03/30 07:35:17;;;;;;;10.15;3.60;;;;;;;;;;5122198;27;20034;-57
2021/03/30 07:38:01;;;;;;;8.85;4.20;;;;;;;;;;5133958;27;20022;-54
2021/03/30 07:40:27;;;;;;;11.73;3.95;;;;;;;;;;5129783;27;20022;-57
2021/03/30 07:42:52;;;;;;;8.15;4.00;;;;;;;;;;5129305;27;20019;-55
2021/03/30 07:45:22;;;;;;;10.10;4.38;;;;;;;;;;5132873;27;20462;-55
2021/03/30 07:47:48;;;;;;;16.63;4.63;;;;;;;;;;5133017;27;20138;-56
2021/03/30 07:50:15;;;;;;;11.20;4.05;;;;;;;;;;5133892;27;20058;-56
2021/03/30 07:52:44;;;;;;;10.27;3.78;;;;;;;;;;5130962;27;20027;-52
2021/03/30 07:55:22;;;;;;;9.73;3.85;;;;;;;;;;5133076;27;20031;-57
2021/03/30 07:57:57;;;;;;;4.53;2.28;;;;;;;;;;5123733;27;20031;-56
2021/03/30 08:00:32;;;;;;;7.22;1.60;;;;;;;;;;5128818;27;20489;-53
2021/03/30 08:02:57;;;;;;;6.43;1.90;;;;;;;;;;5133738;27;20054;-59
2021/03/30 08:05:26;;;;;;;5.70;2.00;;;;;;;;;;5131094;27;20055;-60
2021/03/30 08:07:53;;;;;;;5.95;1.90;;;;;;;;;;5133880;27;20059;-59
2021/03/30 08:10:22;;;;;;;8.55;2.25;;;;;;;;;;5120486;27;20011;-59
2021/03/30 08:12:47;;;;;;;4.22;2.28;;;;;;;;;;5129130;27;20015;-58
2021/03/30 08:15:31;;;;;;;5.15;1.85;;;;;;;;;;5124855;27;20018;-57
2021/03/30 08:17:56;;;;;;;5.38;2.17;;;;;;;;;;5109512;27;20031;-58
2021/03/30 08:20:25;;;;;;;4.20;2.30;;;;;;;;;;5111697;27;20485;-59
2021/03/30 08:23:01;;;;;;;5.60;2.40;;;;;;;;;;5112728;27;20022;-60
2021/03/30 08:25:26;;;;;;;4.03;1.90;;;;;;;;;;5115393;27;20018;-59
2021/03/30 08:27:52;;;;;;;5.60;2.55;;;;;;;;;;5121043;27;20443;-59
2021/03/30 08:30:26;;;;;;;5.05;2.00;;;;;;;;;;5128760;27;20071;-59
2021/03/30 08:32:52;;;;;;;3.33;2.33;;;;;;;;;;5125449;27;20015;-58
2021/03/30 08:35:44;;;;;;;4.72;2.38;;;;;;;;;;5117943;27;20037;-58
2021/03/30 08:38:29;;;;;;;5.03;2.67;;;;;;;;;;5122207;27;20035;-58
2021/03/30 08:40:54;;;;;;;4.43;3.15;;;;;;;;;;5110841;27;20030;-59
2021/03/30 08:43:21;;;;;;;5.45;2.95;;;;;;;;;;5122157;27;20031;-59
2021/03/30 08:46:04;;;;;;;5.97;2.67;;;;;;;;;;5125906;27;20019;-59
2021/03/30 08:48:49;;;;;;;5.38;3.03;;;;;;;;;;5126424;27;20024;-59
2021/03/30 08:51:16;;;;;;;4.55;2.78;;;;;;;;;;5127743;27;20043;-60
2021/03/30 08:53:42;;;;;;;5.38;3.53;;;;;;;;;;5121713;27;20238;-58
2021/03/30 08:56:10;;;;;;;5.75;2.72;;;;;;;;;;5129860;27;20450;-59
2021/03/30 08:58:49;;;;;;;6.47;3.78;;;;;;;;;;5124530;27;20416;-57
2021/03/30 09:01:14;;;;;;;6.50;2.92;;;;;;;;;;5119782;27;20019;-59
2021/03/30 09:03:40;;;;;;;5.22;3.67;;;;;;;;;;5124321;28;20034;-59
2021/03/30 09:06:05;;;;;;;7.75;3.30;;;;;;;;;;5127467;27;20023;-59
2021/03/30 09:08:38;;;;;;;5.03;3.28;;;;;;;;;;5121709;27;20032;-58
2021/03/30 09:11:13;;;;;;;5.60;3.70;;;;;;;;;;5120900;28;20107;-59
2021/03/30 09:13:38;;;;;;;8.50;3.75;;;;;;;;;;5130268;27;20024;-59
2021/03/30 09:16:09;;;;;;;4.10;2.70;;;;;;;;;;5123890;28;20022;-59
2021/03/30 09:18:34;;;;;;;4.43;3.25;;;;;;;;;;5122819;28;20026;-59
2021/03/30 09:21:07;;;;;;;6.30;2.95;;;;;;;;;;5121567;27;20024;-59
2021/03/30 09:23:32;;;;;;;4.63;2.55;;;;;;;;;;5122910;28;20115;-60
2021/03/30 09:25:59;;;;;;;7.63;4.00;;;;;;;;;;5123086;28;20515;-59
2021/03/30 09:28:24;;;;;;;6.88;3.22;;;;;;;;;;5122991;28;20092;-59
2021/03/30 09:30:50;;;;;;;7.47;4.10;;;;;;;;;;5124553;27;20057;-60
2021/03/30 09:33:16;;;;;;;5.43;3.42;;;;;;;;;;5122957;28;20391;-60
2021/03/30 09:35:41;;;;;;;5.50;3.60;;;;;;;;;;5117531;27;20023;-60
2021/03/30 09:38:07;;;;;;;6.00;3.45;;;;;;;;;;5111907;28;20087;-59
2021/03/30 09:40:34;;;;;;;5.88;4.10;;;;;;;;;;5112127;28;20146;-59
2021/03/30 09:42:59;;;;;;;8.85;4.47;;;;;;;;;;5131748;28;20115;-59
2021/03/30 09:45:26;;;;;;;8.50;4.18;;;;;;;;;;5132601;27;20043;-59
2021/03/30 09:47:52;;;;;;;7.43;3.40;;;;;;;;;;5132779;27;20045;-61
2021/03/30 09:50:19;;;;;;;7.15;4.30;;;;;;;;;;5119578;27;20613;-60
2021/03/30 09:52:44;;;;;;;8.82;4.55;;;;;;;;;;5113862;28;20028;-59
2021/03/30 09:55:10;;;;;;;5.28;4.00;;;;;;;;;;5111985;28;20465;-59
2021/03/30 09:57:35;;;;;;;5.25;3.90;;;;;;;;;;5111938;28;20024;-60
2021/03/30 10:00:01;;;;;;;4.05;3.40;;;;;;;;;;5120456;28;20076;-60
2021/03/30 10:02:28;;;;;;;6.50;4.50;;;;;;;;;;5124152;28;20098;-60
2021/03/30 10:04:54;;;;;;;5.47;4.20;;;;;;;;;;5117777;28;20008;-59
2021/03/30 10:07:21;;;;;;;6.70;4.63;;;;;;;;;;5132036;28;20064;-59
2021/03/30 10:10:05;;;;;;;4.72;4.32;;;;;;;;;;5129376;28;20015;-59
2021/03/30 10:12:38;;;;;;;7.07;4.05;;;;;;;;;;5115094;28;20484;-59
2021/03/30 10:15:04;;;;;;;7.80;4.53;;;;;;;;;;5111119;28;20371;-60
2021/03/30 10:17:31;;;;;;;6.22;4.25;;;;;;;;;;5133388;27;20026;-58
2021/03/30 10:19:57;;;;;;;7.40;4.80;;;;;;;;;;5134173;27;20019;-60
2021/03/30 10:22:27;;;;;;;6.53;4.18;;;;;;;;;;5132721;27;20027;-59
2021/03/30 10:25:12;;;;;;;6.95;4.65;;;;;;;;;;5120083;27;20482;-59
2021/03/30 10:27:37;;;;;;;7.38;4.20;;;;;;;;;;5125333;27;20054;-59
2021/03/30 10:30:04;;;;;;;5.93;3.88;;;;;;;;;;5124674;27;20059;-59
2021/03/30 10:32:42;;;;;;;4.93;3.95;;;;;;;;;;5131027;27;20102;-59
2021/03/30 10:35:07;;;;;;;5.72;3.75;;;;;;;;;;5135418;27;20084;-59
2021/03/30 10:37:33;;;;;;;5.75;3.60;;;;;;;;;;5122598;27;20024;-58
2021/03/30 10:40:01;;;;;;;5.90;3.38;;;;;;;;;;5124142;27;20027;-59
2021/03/30 10:42:29;;;;;;;5.65;3.53;;;;;;;;;;5135852;27;20060;-59
2021/03/30 10:45:00;;;;;;;5.72;4.03;;;;;;;;;;5131071;27;20027;-58
2021/03/30 10:47:29;;;;;;;6.13;4.05;;;;;;;;;;5118839;27;20022;-59
2021/03/30 10:49:55;;;;;;;5.40;3.92;;;;;;;;;;5133080;27;20599;-58
2021/03/30 10:52:24;;;;;;;5.10;4.43;;;;;;;;;;5130203;27;20117;-58
2021/03/30 10:54:51;;;;;;;4.38;3.85;;;;;;;;;;5135137;27;20023;-59
2021/03/30 10:57:21;;;;;;;6.15;3.72;;;;;;;;;;5134963;27;20377;-58
2021/03/30 10:59:47;;;;;;;7.43;4.20;;;;;;;;;;5134462;27;20019;-59
2021/03/30 11:02:13;;;;;;;7.63;4.72;;;;;;;;;;5134618;27;20026;-59
2021/03/30 11:04:39;;;;;;;5.47;4.90;;;;;;;;;;5134642;27;20022;-59
2021/03/30 11:07:05;;;;;;;6.32;4.32;;;;;;;;;;5135249;27;20026;-59
2021/03/30 11:09:30;;;;;;;5.18;4.63;;;;;;;;;;5135087;27;20094;-58
2021/03/30 11:11:55;;;;;;;6.15;5.00;;;;;;;;;;5134504;27;20026;-57
2021/03/30 11:14:21;;;;;;;6.03;4.55;;;;;;;;;;5131087;27;20178;-58
2021/03/30 11:16:47;;;;;;;6.13;4.00;;;;;;;;;;5135220;27;20023;-58
2021/03/30 11:19:13;;;;;;;5.35;4.85;;;;;;;;;;5127984;27;20359;-58
2021/03/30 11:21:38;;;;;;;8.68;4.90;;;;;;;;;;5130448;27;20386;-58
2021/03/30 11:24:05;;;;;;;5.00;4.50;;;;;;;;;;5134630;27;20021;-59
2021/03/30 11:26:30;;;;;;;6.47;4.45;;;;;;;;;;5134928;27;20015;-59
2021/03/30 11:28:57;;;;;;;5.15;4.63;;;;;;;;;;5134375;27;20083;-59
2021/03/30 11:34:18;;;;;;;4.50;3.03;;;;;;;;;;5107138;27;20036;-59
2021/03/30 11:36:45;;;;;;;5.60;4.90;;;;;;;;;;5133772;27;20443;-59
2021/03/30 11:39:11;;;;;;;5.72;4.88;;;;;;;;;;5133973;27;20011;-58
2021/03/30 11:41:36;;;;;;;7.22;5.05;;;;;;;;;;5133186;27;20034;-59
2021/03/30 11:44:02;;;;;;;4.57;3.90;;;;;;;;;;5134699;27;20019;-57
2021/03/30 11:46:27;;;;;;;5.57;4.72;;;;;;;;;;5134858;27;20646;-59
2021/03/30 11:48:52;;;;;;;5.68;4.35;;;;;;;;;;5132542;27;20007;-58
2021/03/30 11:51:18;;;;;;;6.28;4.95;;;;;;;;;;5134500;27;20127;-59
2021/03/30 11:53:44;;;;;;;5.03;4.20;;;;;;;;;;5120230;27;20023;-58
2021/03/30 11:56:10;;;;;;;5.18;4.05;;;;;;;;;;5133074;27;20366;-58
2021/03/30 11:58:36;;;;;;;6.65;4.57;;;;;;;;;;5129580;27;20023;-58
2021/03/30 12:01:02;;;;;;;6.22;4.50;;;;;;;;;;5131522;27;20098;-58
2021/03/30 12:03:27;;;;;;;4.75;4.15;;;;;;;;;;5125889;27;20359;-57
2021/03/30 12:05:52;;;;;;;4.90;3.03;;;;;;;;;;5126338;27;20512;-57
2021/03/30 12:08:17;;;;;;;5.07;3.88;;;;;;;;;;5134095;27;20257;-59
2021/03/30 12:10:43;;;;;;;4.03;3.57;;;;;;;;;;5132236;27;20023;-58
2021/03/30 12:13:09;;;;;;;5.25;2.60;;;;;;;;;;5134109;27;20284;-58
2021/03/30 12:15:34;;;;;;;3.20;2.30;;;;;;;;;;5133918;27;20067;-59
2021/03/30 12:18:00;;;;;;;2.65;2.40;;;;;;;;;;5134061;27;20023;-59
2021/03/30 12:20:25;;;;;;;3.93;2.07;;;;;;;;;;5134034;27;20019;-60
2021/03/30 12:22:50;;;;;;;3.22;1.55;;;;;;;;;;5133573;27;20264;-58
2021/03/30 12:25:16;;;;;;;2.75;1.50;;;;;;;;;;5131896;27;20023;-59
2021/03/30 12:27:41;;;;;;;4.30;1.70;;;;;;;;;;5122327;27;20031;-58
2021/03/30 12:30:07;;;;;;;1.85;1.60;;;;;;;;;;5127902;27;20275;-59
2021/03/30 12:32:32;;;;;;;3.25;1.83;;;;;;;;;;5118127;27;20406;-58
2021/03/30 12:34:57;;;;;;;3.13;2.05;;;;;;;;;;5132735;27;20021;-59
2021/03/30 12:37:23;;;;;;;4.07;2.27;;;;;;;;;;5117700;27;20470;-59
2021/03/30 12:39:48;;;;;;;2.55;2.28;;;;;;;;;;5127563;27;20272;-60
2021/03/30 12:42:13;;;;;;;2.83;2.33;;;;;;;;;;5133170;27;20033;-59
2021/03/30 12:44:39;;;;;;;2.33;1.52;;;;;;;;;;5133035;27;20253;-59
2021/03/30 12:47:04;;;;;;;2.93;2.67;;;;;;;;;;5133648;27;20057;-59
2021/03/30 12:49:29;;;;;;;3.50;2.30;;;;;;;;;;5132157;27;20321;-59
2021/03/30 12:51:55;;;;;;;4.22;2.08;;;;;;;;;;5113860;27;20534;-59
2021/03/30 12:54:21;;;;;;;5.47;2.83;;;;;;;;;;5133587;27;20018;-59
2021/03/30 12:56:46;;;;;;;5.03;2.40;;;;;;;;;;5128950;27;20266;-59
2021/03/30 12:59:12;;;;;;;3.35;2.10;;;;;;;;;;5132104;27;20527;-58
2021/03/30 13:01:37;;;;;;;3.13;2.35;;;;;;;;;;5118879;27;20075;-58
2021/03/30 13:04:03;;;;;;;2.97;2.20;;;;;;;;;;5121139;28;20110;-57
2021/03/30 13:06:28;;;;;;;4.45;2.50;;;;;;;;;;5127209;27;20022;-59
2021/03/30 13:08:54;;;;;;;2.75;2.17;;;;;;;;;;5121889;28;20027;-58
2021/03/30 13:11:19;;;;;;;2.50;1.93;;;;;;;;;;5132212;28;20039;-58
2021/03/30 13:13:44;;;;;;;3.23;2.17;;;;;;;;;;5116946;28;20486;-58
2021/03/30 13:16:09;;;;;;;5.27;2.50;;;;;;;;;;5113261;28;20295;-58
2021/03/30 13:18:35;;;;;;;3.60;2.30;;;;;;;;;;5113807;28;20708;-57
2021/03/30 13:21:00;;;;;;;3.47;2.47;;;;;;;;;;5112851;28;20047;-58
2021/03/30 13:23:26;;;;;;;2.97;2.08;;;;;;;;;;5115705;28;20026;-58
2021/03/30 13:25:52;;;;;;;4.50;2.33;;;;;;;;;;5125363;28;20023;-58
2021/03/30 13:28:17;;;;;;;2.22;2.00;;;;;;;;;;5133270;27;20023;-58
2021/03/30 13:30:43;;;;;;;3.05;1.60;;;;;;;;;;5132944;28;20027;-58
2021/03/30 13:33:09;;;;;;;2.97;2.25;;;;;;;;;;5129110;27;20019;-57
2021/03/30 13:35:34;;;;;;;4.82;2.17;;;;;;;;;;5121410;28;20506;-58
2021/03/30 13:38:00;;;;;;;3.15;2.30;;;;;;;;;;5116530;28;20390;-59
2021/03/30 13:40:25;;;;;;;3.08;1.60;;;;;;;;;;5118971;28;20013;-58
2021/03/30 13:42:51;;;;;;;3.78;2.22;;;;;;;;;;5128401;28;20027;-58
2021/03/30 13:45:16;;;;;;;4.07;2.55;;;;;;;;;;5122843;28;20481;-57
2021/03/30 13:47:41;;;;;;;2.17;2.08;;;;;;;;;;5127633;28;20458;-58
2021/03/30 13:50:08;;;;;;;3.22;2.58;;;;;;;;;;5124895;27;20040;-57
2021/03/30 13:52:33;;;;;;;3.08;2.78;;;;;;;;;;5125437;27;20019;-58
2021/03/30 13:54:59;;;;;;;3.10;2.78;;;;;;;;;;5127818;27;20027;-58
2021/03/30 13:57:24;;;;;;;2.38;0.98;;;;;;;;;;5126863;27;20015;-58
2021/03/30 13:59:50;;;;;;;2.00;1.67;;;;;;;;;;5128130;27;20023;-57
2021/03/30 14:02:15;;;;;;;3.50;2.00;;;;;;;;;;5126886;27;20466;-57
2021/03/30 14:04:40;;;;;;;2.90;2.60;;;;;;;;;;5124927;27;20030;-57
2021/03/30 14:07:06;;;;;;;3.45;2.40;;;;;;;;;;5125834;27;20273;-58
2021/03/30 14:09:33;;;;;;;3.85;3.50;;;;;;;;;;5126744;27;20087;-58
2021/03/30 14:15:00;;;;;;;4.15;3.22;;;;;;;;;;5067457;28;20047;-59
2021/03/30 14:17:33;;;;;;;5.97;3.50;;;;;;;;;;5067502;28;20032;-58
2021/03/30 14:20:01;;;;;;;5.85;4.45;;;;;;;;;;5067128;28;20021;-57
2021/03/30 14:22:30;;;;;;;4.57;3.85;;;;;;;;;;5067540;28;20031;-58
2021/03/30 14:24:57;;;;;;;4.35;3.90;;;;;;;;;;5071261;28;20031;-58
2021/03/30 14:27:23;;;;;;;3.88;3.10;;;;;;;;;;5071742;28;20064;-58
2021/03/30 14:29:51;;;;;;;3.35;2.95;;;;;;;;;;5068035;28;20044;-59
2021/03/30 14:32:17;;;;;;;5.07;3.13;;;;;;;;;;5072158;28;20430;-58
2021/03/30 14:34:43;;;;;;;4.35;3.58;;;;;;;;;;5070938;28;20016;-58
2021/03/30 14:37:09;;;;;;;5.47;3.33;;;;;;;;;;5066411;28;20024;-57
2021/03/30 14:39:34;;;;;;;4.93;3.28;;;;;;;;;;5066067;28;20441;-58
2021/03/30 14:42:21;;;;;;;4.97;3.60;;;;;;;;;;5067685;28;20039;-58
2021/03/30 14:53:02;;;;;;;5.20;3.50;;;;;;;;;;5125510;27;20512;-59
2021/03/30 15:00:50;;;;;;;6.03;4.18;;;;;;;;;;5118333;27;20106;-60
2021/03/30 15:03:27;;;;;;;5.40;3.13;;;;;;;;;;5122798;27;20046;-59
2021/03/30 15:05:53;;;;;;;4.90;3.10;;;;;;;;;;5116323;27;20038;-58
2021/03/30 15:08:18;;;;;;;5.18;2.85;;;;;;;;;;5131033;27;20027;-57